Time;durP1;ratioP1;P1;durP2;ratioP2;P2;SDS_P1;SDS_P2;PMS_P1;PMS_P2;Temp;Humidity;BMP_temperature;BMP_pressure;BME280_temperature;BME280_humidity;BME280_pressure;Samples;Min_cycle;Max_cycle;Signal;HPM_P1;HPM_P2
2023/12/22 00:01:08;;;;;;;36.77;6.33;;;4.70;76.20;;;;;;5025745;28;20046;-76
2023/12/22 00:03:33;;;;;;;31.17;6.57;;;4.70;75.00;;;;;;5026948;28;20049;-76
2023/12/22 00:05:59;;;;;;;33.27;6.47;;;4.70;73.20;;;;;;5026912;28;20041;-75
2023/12/22 00:08:25;;;;;;;31.20;6.07;;;4.70;73.70;;;;;;5026702;28;20054;-77
2023/12/22 00:10:50;;;;;;;36.70;6.60;;;4.70;73.60;;;;;;5025310;28;20051;-75
2023/12/22 00:13:16;;;;;;;30.23;6.00;;;4.70;74.20;;;;;;5026678;28;20052;-77
2023/12/22 00:15:44;;;;;;;37.17;6.63;;;4.50;75.20;;;;;;5025892;28;20045;-78
2023/12/22 00:18:10;;;;;;;38.90;6.63;;;4.50;76.20;;;;;;5026215;28;20100;-77
2023/12/22 00:20:36;;;;;;;37.67;6.93;;;4.40;77.20;;;;;;5026019;28;20452;-77
2023/12/22 00:23:02;;;;;;;44.23;6.97;;;4.30;77.70;;;;;;5026632;28;20144;-77
2023/12/22 00:25:27;;;;;;;27.80;5.40;;;4.30;78.00;;;;;;5026198;28;20052;-79
2023/12/22 00:27:53;;;;;;;32.43;5.23;;;4.30;77.40;;;;;;5026276;28;20208;-76
2023/12/22 00:30:19;;;;;;;33.70;5.80;;;4.30;76.20;;;;;;5025514;28;20119;-76
2023/12/22 00:32:44;;;;;;;40.40;6.50;;;4.30;75.10;;;;;;5006990;28;20077;-80
2023/12/22 00:35:10;;;;;;;29.33;5.53;;;4.30;75.00;;;;;;5022708;28;20076;-75
2023/12/22 00:37:36;;;;;;;19.50;3.83;;;4.30;75.00;;;;;;5025766;28;20053;-74
2023/12/22 00:40:05;;;;;;;15.83;3.10;;;4.30;75.00;;;;;;5026543;28;20131;-78
2023/12/22 00:42:31;;;;;;;25.23;3.80;;;4.30;74.80;;;;;;5021405;28;20497;-77
2023/12/22 00:44:56;;;;;;;13.17;2.40;;;4.30;73.90;;;;;;5027858;28;20107;-76
2023/12/22 00:47:22;;;;;;;16.37;2.57;;;4.30;73.20;;;;;;5027415;28;20049;-77
2023/12/22 00:49:48;;;;;;;15.90;2.60;;;4.30;72.60;;;;;;5027961;28;20183;-74
2023/12/22 00:52:13;;;;;;;14.13;3.17;;;4.30;72.70;;;;;;5037429;28;20084;-78
2023/12/22 00:54:39;;;;;;;11.43;2.63;;;4.30;74.10;;;;;;5028988;28;20045;-77
2023/12/22 00:57:05;;;;;;;15.17;2.50;;;4.20;75.30;;;;;;5031883;28;20064;-78
2023/12/22 00:59:30;;;;;;;17.73;2.97;;;4.20;74.30;;;;;;5028034;28;20046;-77
2023/12/22 01:01:56;;;;;;;26.03;4.00;;;4.10;73.00;;;;;;5040759;28;20057;-76
2023/12/22 01:04:22;;;;;;;22.60;3.97;;;4.10;72.60;;;;;;5026137;28;20061;-75
2023/12/22 01:06:47;;;;;;;30.77;4.93;;;4.20;72.90;;;;;;5026742;28;20129;-76
2023/12/22 01:09:14;;;;;;;36.97;6.00;;;4.20;73.20;;;;;;5028413;28;20056;-77
2023/12/22 01:11:41;;;;;;;35.00;5.93;;;4.20;73.60;;;;;;5020778;28;20049;-76
2023/12/22 01:14:07;;;;;;;29.43;6.27;;;4.20;74.10;;;;;;5028182;28;20138;-76
2023/12/22 01:16:33;;;;;;;34.83;6.73;;;4.30;74.20;;;;;;5026717;28;20084;-77
2023/12/22 01:18:58;;;;;;;38.17;6.80;;;4.30;74.40;;;;;;5013799;28;20041;-76
2023/12/22 01:21:24;;;;;;;44.93;7.10;;;4.40;74.80;;;;;;5027186;28;20060;-77
2023/12/22 01:23:50;;;;;;;38.80;6.67;;;4.40;74.70;;;;;;5027469;28;20060;-76
2023/12/22 01:26:15;;;;;;;32.93;6.13;;;4.50;74.50;;;;;;5027101;28;20396;-77
2023/12/22 01:28:41;;;;;;;33.23;6.17;;;4.50;74.60;;;;;;5027489;28;20049;-76
2023/12/22 01:31:07;;;;;;;34.67;5.93;;;4.40;74.50;;;;;;5027340;28;20049;-74
2023/12/22 01:33:33;;;;;;;37.67;7.07;;;4.40;75.00;;;;;;5027725;28;20067;-78
2023/12/22 01:35:59;;;;;;;44.00;7.63;;;4.50;75.30;;;;;;5026977;28;20049;-77
2023/12/22 01:38:25;;;;;;;39.90;7.47;;;4.50;75.40;;;;;;5026454;28;20477;-77
2023/12/22 01:40:50;;;;;;;26.53;6.63;;;4.60;75.40;;;;;;5026733;28;20069;-78
2023/12/22 01:43:21;;;;;;;34.80;6.87;;;4.60;75.70;;;;;;5014515;28;20378;-75
2023/12/22 01:45:48;;;;;;;27.65;4.85;;;4.50;75.80;;;;;;5008032;28;20076;-76
2023/12/22 01:48:15;;;;;;;40.10;6.97;;;4.40;76.00;;;;;;5008318;28;20084;-77
2023/12/22 01:50:41;;;;;;;35.73;7.63;;;4.30;76.10;;;;;;5019321;28;20049;-76
2023/12/22 01:53:07;;;;;;;40.43;7.53;;;4.10;76.40;;;;;;5022328;28;20233;-76
2023/12/22 01:55:33;;;;;;;45.43;7.90;;;4.00;76.80;;;;;;5026942;28;20049;-75
2023/12/22 01:57:59;;;;;;;44.07;8.20;;;4.00;76.90;;;;;;5027516;28;20049;-75
2023/12/22 02:00:25;;;;;;;46.20;8.30;;;4.00;77.00;;;;;;5026367;28;20050;-75
2023/12/22 02:02:52;;;;;;;45.63;8.37;;;4.00;76.80;;;;;;5028033;28;20049;-77
2023/12/22 02:05:18;;;;;;;39.17;7.13;;;4.10;76.70;;;;;;4999850;28;20087;-76
2023/12/22 02:07:45;;;;;;;39.90;8.23;;;4.20;76.60;;;;;;5026743;28;20053;-77
2023/12/22 02:10:10;;;;;;;39.03;8.13;;;4.30;76.50;;;;;;5026505;28;20077;-75
2023/12/22 02:12:37;;;;;;;50.27;8.37;;;4.40;76.90;;;;;;5027640;28;20505;-77
2023/12/22 02:15:04;;;;;;;40.53;7.80;;;4.40;77.90;;;;;;5025227;28;20408;-74
2023/12/22 02:17:42;;;;;;;43.97;7.43;;;4.40;78.10;;;;;;5025843;28;20245;-80
2023/12/22 02:20:09;;;;;;;25.57;4.87;;;4.40;78.30;;;;;;5025711;28;20061;-76
2023/12/22 02:22:35;;;;;;;33.43;5.83;;;4.20;78.60;;;;;;5025809;28;20045;-78
2023/12/22 02:25:01;;;;;;;30.87;5.20;;;4.10;78.90;;;;;;5027092;28;20067;-79
2023/12/22 02:27:34;;;;;;;24.50;4.40;;;4.00;79.00;;;;;;5025704;28;20081;-79
2023/12/22 02:30:09;;;;;;;35.40;5.13;;;3.90;79.10;;;;;;5015554;28;20049;-78
2023/12/22 02:32:40;;;;;;;29.93;5.13;;;3.90;79.20;;;;;;5014809;28;20048;-76
2023/12/22 02:35:11;;;;;;;37.87;5.60;;;3.90;79.40;;;;;;5026506;28;20056;-77
2023/12/22 02:37:39;;;;;;;36.53;5.90;;;3.90;79.50;;;;;;5024900;28;20041;-78
2023/12/22 02:40:11;;;;;;;40.83;6.77;;;3.90;79.70;;;;;;5025226;28;20125;-78
2023/12/22 02:42:38;;;;;;;40.03;7.03;;;3.90;80.10;;;;;;5018453;28;20408;-76
2023/12/22 02:45:05;;;;;;;38.60;7.47;;;4.00;79.90;;;;;;5024793;28;20136;-75
2023/12/22 02:47:33;;;;;;;41.17;7.57;;;4.10;79.60;;;;;;5025554;28;20174;-76
2023/12/22 02:49:59;;;;;;;39.43;6.93;;;4.20;79.50;;;;;;5021753;28;20061;-77
2023/12/22 02:52:25;;;;;;;41.57;7.97;;;4.20;79.40;;;;;;5012556;28;20045;-77
2023/12/22 02:54:50;;;;;;;38.07;6.53;;;4.30;79.30;;;;;;5009909;28;20412;-77
2023/12/22 02:57:16;;;;;;;42.57;7.87;;;4.40;79.30;;;;;;5016638;28;20053;-78
2023/12/22 02:59:42;;;;;;;42.73;8.00;;;4.50;79.30;;;;;;5025745;28;20046;-79
2023/12/22 03:02:07;;;;;;;34.97;5.13;;;4.50;79.40;;;;;;5024723;28;20046;-74
2023/12/22 03:04:33;;;;;;;16.37;2.70;;;4.40;79.60;;;;;;5024332;28;20041;-75
2023/12/22 03:06:59;;;;;;;20.40;3.47;;;4.10;78.70;;;;;;5024230;28;20049;-75
2023/12/22 03:09:24;;;;;;;13.10;2.40;;;3.70;78.70;;;;;;5025246;28;20356;-76
2023/12/22 03:11:54;;;;;;;19.93;2.90;;;3.50;78.80;;;;;;5024592;28;20487;-76
2023/12/22 03:14:20;;;;;;;17.17;3.17;;;3.20;79.10;;;;;;5025641;28;20057;-76
2023/12/22 03:16:46;;;;;;;22.10;3.60;;;3.00;79.40;;;;;;5025186;28;20127;-75
2023/12/22 03:19:11;;;;;;;28.93;5.30;;;2.90;79.70;;;;;;5025181;28;21403;-75
2023/12/22 03:21:37;;;;;;;39.27;5.90;;;2.80;80.00;;;;;;5017909;28;20300;-74
2023/12/22 03:24:03;;;;;;;37.57;6.30;;;2.80;80.40;;;;;;5025503;28;20103;-76
2023/12/22 03:26:28;;;;;;;38.57;6.43;;;2.80;80.90;;;;;;5024924;28;20127;-76
2023/12/22 03:28:54;;;;;;;38.67;6.30;;;2.90;81.20;;;;;;5031287;28;20037;-78
2023/12/22 03:31:20;;;;;;;38.17;7.57;;;3.00;81.60;;;;;;5030769;28;20062;-76
2023/12/22 03:33:45;;;;;;;36.40;6.70;;;3.10;82.00;;;;;;5033029;28;20050;-77
2023/12/22 03:36:11;;;;;;;29.77;3.97;;;3.30;82.30;;;;;;5030545;28;20132;-79
2023/12/22 03:38:37;;;;;;;19.43;3.23;;;3.50;81.80;;;;;;5032534;28;20060;-77
2023/12/22 03:41:02;;;;;;;18.23;3.27;;;3.50;81.40;;;;;;5031439;28;20042;-75
2023/12/22 03:43:29;;;;;;;20.73;2.83;;;3.60;80.70;;;;;;5025849;28;20045;-77
2023/12/22 03:45:55;;;;;;;18.43;3.13;;;3.60;80.30;;;;;;5031811;28;20081;-75
2023/12/22 03:48:21;;;;;;;22.53;3.47;;;3.60;80.20;;;;;;5032449;28;20154;-77
2023/12/22 03:50:46;;;;;;;20.97;3.77;;;3.70;80.10;;;;;;5019729;28;20116;-77
2023/12/22 03:53:12;;;;;;;21.03;4.23;;;3.70;80.10;;;;;;5026598;28;20072;-75
2023/12/22 03:55:38;;;;;;;27.47;4.43;;;3.70;80.20;;;;;;5031858;28;20064;-76
2023/12/22 03:58:04;;;;;;;35.40;5.37;;;3.90;80.20;;;;;;5032138;28;20060;-76
2023/12/22 04:00:31;;;;;;;42.27;6.70;;;3.90;80.30;;;;;;5023602;28;20053;-76
2023/12/22 04:02:56;;;;;;;37.03;6.57;;;3.90;80.50;;;;;;5032168;28;20246;-75
2023/12/22 04:05:22;;;;;;;43.10;6.77;;;4.00;80.70;;;;;;5031795;28;20052;-75
2023/12/22 04:07:47;;;;;;;48.47;7.57;;;4.10;80.80;;;;;;5032609;28;20131;-75
2023/12/22 04:10:17;;;;;;;51.83;7.20;;;4.10;80.90;;;;;;5030627;28;20045;-75
2023/12/22 04:12:43;;;;;;;48.23;8.07;;;4.10;81.00;;;;;;5032713;28;20040;-75
2023/12/22 04:15:09;;;;;;;58.30;8.17;;;4.20;80.90;;;;;;5031775;28;20042;-75
2023/12/22 04:17:34;;;;;;;55.47;9.30;;;4.30;80.70;;;;;;5026112;28;20209;-76
2023/12/22 04:20:00;;;;;;;53.73;8.87;;;4.40;80.30;;;;;;5012000;28;20046;-76
2023/12/22 04:22:26;;;;;;;47.33;8.53;;;4.40;80.00;;;;;;5014270;28;20053;-77
2023/12/22 04:24:52;;;;;;;45.90;8.07;;;4.50;79.00;;;;;;5032274;28;20072;-75
2023/12/22 04:27:17;;;;;;;39.53;8.00;;;4.50;78.60;;;;;;5030946;28;20501;-76
2023/12/22 04:29:43;;;;;;;40.37;7.67;;;4.50;78.40;;;;;;5023999;28;20497;-77
2023/12/22 04:32:09;;;;;;;40.27;7.20;;;4.50;78.00;;;;;;5012117;28;20457;-75
2023/12/22 04:34:35;;;;;;;32.53;6.80;;;4.60;77.90;;;;;;5011418;28;20120;-75
2023/12/22 04:37:00;;;;;;;32.47;6.83;;;4.60;77.30;;;;;;5011659;28;20064;-75
2023/12/22 04:39:26;;;;;;;36.07;7.47;;;4.70;76.40;;;;;;5009424;28;20054;-75
2023/12/22 04:41:52;;;;;;;45.43;7.93;;;4.80;76.20;;;;;;5016634;28;20054;-76
2023/12/22 04:44:17;;;;;;;42.60;8.70;;;4.90;76.70;;;;;;5008051;28;20740;-74
2023/12/22 04:46:43;;;;;;;34.60;7.27;;;4.90;77.20;;;;;;5008625;28;20153;-76
2023/12/22 04:49:09;;;;;;;44.37;7.27;;;4.90;76.70;;;;;;5015757;28;20060;-76
2023/12/22 04:51:34;;;;;;;29.70;5.83;;;4.90;76.50;;;;;;5023804;28;20052;-75
2023/12/22 04:54:00;;;;;;;30.10;6.90;;;4.90;75.90;;;;;;5023600;28;20045;-75
2023/12/22 04:56:26;;;;;;;29.27;6.33;;;4.90;75.40;;;;;;5026945;28;20076;-75
2023/12/22 04:58:52;;;;;;;32.97;5.73;;;4.90;75.40;;;;;;5028370;28;20049;-75
2023/12/22 05:01:19;;;;;;;35.23;5.80;;;4.90;74.50;;;;;;5026824;28;20471;-76
2023/12/22 05:03:44;;;;;;;34.80;6.40;;;4.90;73.80;;;;;;5028540;28;20471;-76
2023/12/22 05:06:10;;;;;;;29.23;6.17;;;5.00;74.00;;;;;;5028221;28;20056;-74
2023/12/22 05:08:36;;;;;;;33.73;5.70;;;5.00;74.40;;;;;;5028573;28;20067;-74
2023/12/22 05:11:01;;;;;;;35.57;5.97;;;5.00;74.30;;;;;;5027829;28;20113;-76
2023/12/22 05:13:27;;;;;;;41.07;6.83;;;5.00;74.30;;;;;;5025813;28;20075;-75
2023/12/22 05:15:53;;;;;;;31.03;6.77;;;5.10;74.40;;;;;;5027180;28;20057;-76
2023/12/22 05:18:18;;;;;;;34.40;7.30;;;5.10;73.90;;;;;;5027736;28;20048;-75
2023/12/22 05:20:44;;;;;;;33.80;6.30;;;5.20;73.50;;;;;;5028168;28;20432;-75
2023/12/22 05:23:10;;;;;;;37.33;6.53;;;5.30;73.90;;;;;;5027830;28;20041;-76
2023/12/22 05:25:36;;;;;;;35.57;6.47;;;5.30;73.30;;;;;;5027060;28;20060;-74
2023/12/22 05:28:02;;;;;;;34.90;6.77;;;5.30;74.00;;;;;;5026200;28;20064;-76
2023/12/22 05:30:27;;;;;;;33.93;6.20;;;5.30;73.80;;;;;;5026145;28;20064;-74
2023/12/22 05:32:54;;;;;;;30.37;6.03;;;5.30;74.40;;;;;;5026335;28;20073;-76
2023/12/22 05:35:20;;;;;;;35.43;7.47;;;5.30;74.20;;;;;;5027073;28;20685;-76
2023/12/22 05:37:47;;;;;;;42.70;7.67;;;5.20;73.00;;;;;;5027461;28;20151;-77
2023/12/22 05:40:13;;;;;;;38.03;7.33;;;5.30;74.10;;;;;;5026882;28;20575;-75
2023/12/22 05:42:39;;;;;;;40.57;7.57;;;5.30;73.40;;;;;;5019427;28;20088;-76
2023/12/22 05:45:06;;;;;;;43.23;7.07;;;5.30;73.50;;;;;;5011332;28;20116;-76
2023/12/22 05:47:32;;;;;;;31.20;6.33;;;5.30;73.20;;;;;;5026026;28;20053;-75
2023/12/22 05:49:58;;;;;;;38.80;6.40;;;5.30;73.10;;;;;;5027314;28;20053;-75
2023/12/22 05:52:24;;;;;;;30.97;6.63;;;5.30;73.10;;;;;;5019321;28;20057;-77
2023/12/22 05:54:49;;;;;;;34.13;6.20;;;5.30;72.30;;;;;;5027450;28;20049;-77
2023/12/22 05:57:15;;;;;;;31.27;6.17;;;5.40;73.30;;;;;;5016858;28;20054;-76
2023/12/22 05:59:41;;;;;;;33.30;5.90;;;5.40;73.20;;;;;;5019109;28;20144;-75
2023/12/22 06:02:07;;;;;;;29.87;5.93;;;5.30;72.60;;;;;;5024882;28;20506;-75
2023/12/22 06:04:32;;;;;;;34.67;6.60;;;5.40;73.20;;;;;;5014766;28;20164;-75
2023/12/22 06:06:59;;;;;;;35.20;6.47;;;5.50;72.20;;;;;;5019823;28;20139;-76
2023/12/22 06:09:24;;;;;;;35.90;6.70;;;5.50;71.70;;;;;;5025540;28;20065;-76
2023/12/22 06:11:51;;;;;;;35.93;6.30;;;5.50;72.60;;;;;;5025665;28;20509;-76
2023/12/22 06:14:16;;;;;;;34.13;7.57;;;5.50;73.20;;;;;;5025013;28;20045;-75
2023/12/22 06:16:42;;;;;;;43.43;7.30;;;5.50;73.60;;;;;;5008468;28;20051;-76
2023/12/22 06:19:09;;;;;;;35.33;6.60;;;5.50;74.10;;;;;;5024836;28;20085;-75
2023/12/22 06:21:38;;;;;;;28.23;6.50;;;5.50;74.40;;;;;;5022074;28;20151;-76
2023/12/22 06:24:04;;;;;;;36.97;6.57;;;5.50;74.60;;;;;;5027824;28;20534;-76
2023/12/22 06:26:29;;;;;;;41.03;7.10;;;5.50;74.50;;;;;;5034323;28;20462;-77
2023/12/22 06:28:56;;;;;;;36.93;6.43;;;5.50;74.60;;;;;;5035808;28;20041;-76
2023/12/22 06:31:22;;;;;;;41.90;7.63;;;5.50;74.40;;;;;;5031281;28;20050;-76
2023/12/22 06:33:49;;;;;;;33.83;6.07;;;5.50;74.30;;;;;;5028362;28;20049;-76
2023/12/22 06:36:22;;;;;;;38.33;7.70;;;5.60;73.80;;;;;;5042933;28;20076;-75
2023/12/22 06:38:49;;;;;;;42.70;6.87;;;5.60;73.70;;;;;;5041128;28;20382;-76
2023/12/22 06:41:22;;;;;;;30.37;6.30;;;5.60;73.50;;;;;;5038428;28;20566;-75
2023/12/22 06:43:49;;;;;;;33.10;6.67;;;5.50;74.00;;;;;;5032152;28;20052;-76
2023/12/22 06:46:16;;;;;;;44.10;6.50;;;5.50;73.30;;;;;;5042346;28;20063;-75
2023/12/22 06:48:42;;;;;;;36.13;6.40;;;5.50;73.10;;;;;;5030177;28;20095;-76
2023/12/22 06:51:07;;;;;;;34.53;5.97;;;5.50;73.40;;;;;;5040874;28;20270;-76
2023/12/22 06:53:33;;;;;;;29.63;5.63;;;5.50;73.40;;;;;;5037829;28;20515;-76
2023/12/22 06:55:59;;;;;;;25.27;4.80;;;5.50;72.00;;;;;;5025444;28;20057;-75
2023/12/22 06:58:25;;;;;;;24.70;5.83;;;5.50;72.60;;;;;;5039534;28;20132;-76
2023/12/22 07:00:51;;;;;;;29.10;5.03;;;5.50;71.40;;;;;;5023688;28;20081;-75
2023/12/22 07:03:19;;;;;;;24.43;4.10;;;5.50;72.10;;;;;;5021793;28;20176;-75
2023/12/22 07:05:44;;;;;;;25.50;4.87;;;5.50;71.80;;;;;;5022311;28;20068;-75
2023/12/22 07:08:10;;;;;;;20.57;4.80;;;5.50;72.20;;;;;;5024340;28;20056;-76
2023/12/22 07:10:36;;;;;;;28.63;5.23;;;5.50;72.10;;;;;;5024627;28;20049;-76
2023/12/22 07:13:01;;;;;;;29.83;5.40;;;5.50;71.70;;;;;;5026266;28;20041;-76
2023/12/22 07:15:28;;;;;;;29.40;4.37;;;5.50;71.50;;;;;;5025601;28;20049;-75
2023/12/22 07:17:54;;;;;;;25.73;4.90;;;5.50;72.30;;;;;;5020647;28;20057;-75
2023/12/22 07:20:20;;;;;;;27.80;4.93;;;5.50;72.80;;;;;;5005042;28;20449;-76
2023/12/22 07:22:45;;;;;;;32.40;4.90;;;5.50;72.50;;;;;;5027275;28;20049;-77
2023/12/22 07:25:11;;;;;;;23.17;4.77;;;5.60;73.00;;;;;;5025501;28;20049;-76
2023/12/22 07:27:37;;;;;;;24.97;4.80;;;5.60;73.40;;;;;;5025453;28;20060;-76
2023/12/22 07:30:03;;;;;;;32.83;5.60;;;5.50;73.50;;;;;;5040356;28;20057;-76
2023/12/22 07:32:29;;;;;;;26.43;5.03;;;5.50;73.70;;;;;;5024561;28;20050;-76
2023/12/22 07:34:55;;;;;;;30.23;5.00;;;5.50;73.80;;;;;;5024694;28;20129;-77
2023/12/22 07:37:21;;;;;;;31.43;5.03;;;5.60;73.40;;;;;;5024099;28;20184;-76
2023/12/22 07:39:46;;;;;;;26.70;4.90;;;5.60;73.50;;;;;;5023154;28;20060;-76
2023/12/22 07:42:12;;;;;;;32.87;5.20;;;5.70;73.60;;;;;;5021394;28;20054;-76
2023/12/22 07:44:38;;;;;;;27.30;4.70;;;5.70;73.20;;;;;;5024521;28;20045;-76
2023/12/22 07:47:04;;;;;;;35.77;5.60;;;5.70;73.40;;;;;;5023628;28;20501;-76
2023/12/22 07:49:30;;;;;;;33.63;5.93;;;5.70;73.60;;;;;;5024485;28;20523;-76
2023/12/22 07:51:56;;;;;;;29.90;6.00;;;5.70;73.00;;;;;;5022523;28;20054;-76
2023/12/22 07:54:21;;;;;;;27.07;5.47;;;5.70;73.90;;;;;;5024459;28;20227;-77
2023/12/22 07:56:47;;;;;;;26.17;4.60;;;5.80;73.40;;;;;;5024996;28;20133;-77
2023/12/22 07:59:13;;;;;;;24.60;3.90;;;5.80;73.50;;;;;;5024387;28;20361;-73
2023/12/22 08:01:39;;;;;;;25.10;4.83;;;5.80;73.10;;;;;;5025043;28;20079;-76
2023/12/22 08:04:05;;;;;;;27.07;4.93;;;5.80;73.30;;;;;;5025370;28;20095;-76
2023/12/22 08:06:31;;;;;;;30.33;5.03;;;5.80;73.30;;;;;;5024230;28;20049;-77
2023/12/22 08:08:56;;;;;;;26.93;4.80;;;5.80;73.40;;;;;;5025436;28;20214;-76
2023/12/22 08:11:25;;;;;;;31.73;4.97;;;5.80;73.40;;;;;;5021352;28;20497;-76
2023/12/22 08:13:50;;;;;;;27.97;5.10;;;5.90;73.70;;;;;;5026317;28;20400;-76
2023/12/22 08:16:16;;;;;;;26.87;5.27;;;5.90;74.00;;;;;;5028113;28;20045;-76
2023/12/22 08:18:42;;;;;;;24.60;5.03;;;5.90;73.90;;;;;;5025230;28;20053;-77
2023/12/22 08:21:07;;;;;;;26.87;5.90;;;5.90;73.90;;;;;;5027159;28;20121;-76
2023/12/22 08:23:33;;;;;;;30.33;6.50;;;5.90;74.40;;;;;;5026418;28;20043;-76
2023/12/22 08:25:59;;;;;;;36.73;6.20;;;5.90;74.50;;;;;;5027272;28;20050;-76
2023/12/22 08:28:25;;;;;;;25.27;4.90;;;6.00;74.20;;;;;;5027806;28;20128;-76
2023/12/22 08:30:52;;;;;;;23.30;4.87;;;6.00;74.60;;;;;;5028154;28;20077;-76
2023/12/22 08:33:18;;;;;;;24.97;4.87;;;6.00;74.90;;;;;;5019515;28;20058;-76
2023/12/22 08:35:43;;;;;;;31.23;5.20;;;6.00;75.10;;;;;;5017939;28;20413;-77
2023/12/22 08:38:09;;;;;;;27.80;5.13;;;5.90;75.30;;;;;;5027233;28;20121;-76
2023/12/22 08:40:35;;;;;;;28.70;5.30;;;5.90;75.80;;;;;;5016584;28;20049;-77
2023/12/22 08:43:01;;;;;;;28.10;5.10;;;5.90;76.80;;;;;;5016182;28;20041;-76
2023/12/22 08:45:30;;;;;;;31.83;5.40;;;5.90;77.30;;;;;;5016706;28;20210;-76
2023/12/22 08:47:57;;;;;;;29.30;5.27;;;5.90;77.90;;;;;;5025230;28;20041;-76
2023/12/22 08:50:22;;;;;;;33.17;5.77;;;5.80;78.40;;;;;;5010815;28;20061;-76
2023/12/22 08:52:48;;;;;;;36.43;6.03;;;5.70;79.00;;;;;;5021553;28;20056;-76
2023/12/22 08:55:14;;;;;;;29.20;5.17;;;5.70;79.20;;;;;;5017521;28;20064;-75
2023/12/22 08:57:40;;;;;;;26.70;5.23;;;5.70;79.10;;;;;;5011380;28;20461;-75
2023/12/22 09:00:06;;;;;;;32.70;5.53;;;5.70;79.20;;;;;;5022557;28;20041;-76
2023/12/22 09:02:31;;;;;;;27.70;4.80;;;5.60;79.10;;;;;;5026419;28;20049;-76
2023/12/22 09:04:57;;;;;;;26.93;4.83;;;5.60;79.00;;;;;;5027975;28;20056;-76
2023/12/22 09:07:24;;;;;;;29.13;5.20;;;5.60;78.80;;;;;;5027759;28;20041;-76
2023/12/22 09:09:50;;;;;;;25.40;5.07;;;5.60;78.90;;;;;;5027065;28;20077;-76
2023/12/22 09:12:16;;;;;;;26.83;5.20;;;5.60;78.80;;;;;;5014980;28;20166;-76
2023/12/22 09:14:41;;;;;;;30.20;4.30;;;5.60;78.80;;;;;;5024656;28;20049;-76
2023/12/22 09:17:07;;;;;;;26.93;5.33;;;5.60;78.80;;;;;;5027100;28;20049;-75
2023/12/22 09:19:34;;;;;;;32.20;5.80;;;5.60;78.80;;;;;;5024921;28;20053;-76
2023/12/22 09:21:59;;;;;;;28.83;4.70;;;5.70;78.60;;;;;;5024905;28;20108;-77
2023/12/22 09:24:25;;;;;;;25.43;4.93;;;5.70;78.60;;;;;;5024508;28;20053;-76
2023/12/22 09:26:51;;;;;;;26.83;4.60;;;5.80;77.80;;;;;;5026824;28;20045;-76
2023/12/22 09:29:17;;;;;;;27.43;3.90;;;5.80;77.90;;;;;;5027296;28;20049;-77
2023/12/22 09:31:43;;;;;;;18.77;3.47;;;5.90;77.50;;;;;;5027666;28;20076;-76
2023/12/22 09:34:09;;;;;;;21.37;3.83;;;5.90;77.90;;;;;;5014311;28;20115;-76
2023/12/22 09:36:34;;;;;;;23.07;4.00;;;5.90;77.50;;;;;;5027195;28;20041;-76
2023/12/22 09:39:00;;;;;;;24.83;4.00;;;5.90;77.50;;;;;;5027221;28;20501;-76
2023/12/22 09:41:26;;;;;;;21.57;3.90;;;6.00;77.50;;;;;;5022159;28;20060;-76
2023/12/22 09:43:54;;;;;;;22.40;4.23;;;6.00;77.40;;;;;;5015450;28;20155;-77
2023/12/22 09:46:21;;;;;;;27.03;4.00;;;6.00;77.30;;;;;;5026513;28;20385;-75
2023/12/22 09:48:49;;;;;;;25.63;4.40;;;6.00;77.40;;;;;;4990327;28;20042;-76
2023/12/22 09:51:17;;;;;;;18.33;3.17;;;6.10;77.40;;;;;;4992936;28;20076;-76
2023/12/22 09:53:45;;;;;;;23.67;3.43;;;6.10;77.30;;;;;;4992709;28;20549;-76
2023/12/22 09:56:11;;;;;;;17.20;3.70;;;6.10;77.70;;;;;;5022712;28;20455;-76
2023/12/22 09:58:37;;;;;;;19.73;3.73;;;6.20;77.60;;;;;;5006835;28;20409;-76
2023/12/22 10:01:05;;;;;;;14.37;3.43;;;6.20;77.50;;;;;;5012698;28;20543;-76
2023/12/22 10:03:33;;;;;;;20.93;3.67;;;6.30;77.50;;;;;;5025682;28;20505;-75
2023/12/22 10:05:59;;;;;;;26.03;3.30;;;6.30;77.30;;;;;;5019426;28;20053;-76
2023/12/22 10:08:26;;;;;;;19.50;3.20;;;6.30;77.40;;;;;;5019348;28;20075;-77
2023/12/22 10:10:54;;;;;;;18.47;3.93;;;6.40;77.10;;;;;;5021808;28;20053;-76
2023/12/22 10:13:19;;;;;;;20.30;3.73;;;6.40;77.10;;;;;;5023665;28;20103;-75
2023/12/22 10:15:46;;;;;;;24.37;3.73;;;6.40;76.70;;;;;;5023346;28;20049;-76
2023/12/22 10:18:13;;;;;;;19.73;3.43;;;6.40;76.90;;;;;;5017803;28;20124;-76
2023/12/22 10:20:39;;;;;;;19.10;3.77;;;6.50;77.30;;;;;;5017740;28;20108;-76
2023/12/22 10:23:05;;;;;;;20.17;3.57;;;6.50;76.90;;;;;;5026606;28;20111;-76
2023/12/22 10:25:32;;;;;;;20.67;3.60;;;6.50;76.80;;;;;;5024436;28;20056;-76
2023/12/22 10:27:58;;;;;;;31.83;3.97;;;6.50;77.20;;;;;;5025044;28;20056;-76
2023/12/22 10:30:27;;;;;;;19.57;3.23;;;6.50;77.60;;;;;;5023131;28;20096;-75
2023/12/22 10:32:53;;;;;;;22.97;4.10;;;6.50;77.70;;;;;;5023404;28;20046;-76
2023/12/22 10:35:23;;;;;;;23.27;4.00;;;6.50;77.90;;;;;;5023416;28;20415;-75
2023/12/22 10:37:52;;;;;;;22.03;4.10;;;6.50;78.10;;;;;;5024841;28;20147;-76
2023/12/22 10:40:18;;;;;;;33.83;4.60;;;6.50;78.10;;;;;;5024557;28;20041;-76
2023/12/22 10:42:44;;;;;;;22.77;4.77;;;6.50;78.20;;;;;;5016761;28;20382;-76
2023/12/22 10:45:10;;;;;;;20.80;4.07;;;6.50;78.20;;;;;;5006296;28;20262;-75
2023/12/22 10:47:37;;;;;;;24.20;4.20;;;6.50;78.50;;;;;;5005911;28;20197;-76
2023/12/22 10:50:06;;;;;;;26.93;4.03;;;6.60;78.40;;;;;;5005236;28;20124;-75
2023/12/22 10:52:32;;;;;;;23.03;4.40;;;6.60;78.50;;;;;;5008211;28;20045;-76
2023/12/22 10:54:58;;;;;;;19.53;4.20;;;6.60;78.70;;;;;;5026410;28;20158;-76
2023/12/22 10:57:24;;;;;;;25.73;4.20;;;6.70;78.70;;;;;;5025180;28;20056;-75
2023/12/22 10:59:51;;;;;;;25.83;4.37;;;6.70;78.70;;;;;;5026660;28;20045;-76
2023/12/22 11:02:18;;;;;;;29.00;5.03;;;6.70;78.80;;;;;;5024951;28;20049;-75
2023/12/22 11:05:05;;;;;;;25.27;4.57;;;6.70;78.80;;;;;;5026782;28;20121;-75
2023/12/22 11:07:34;;;;;;;25.93;4.67;;;6.70;79.00;;;;;;5023983;28;20049;-75
2023/12/22 11:10:06;;;;;;;23.97;4.47;;;6.70;78.90;;;;;;5025094;28;20111;-76
2023/12/22 11:12:37;;;;;;;31.80;5.00;;;6.80;79.00;;;;;;5025373;28;20053;-76
2023/12/22 11:15:06;;;;;;;31.03;5.00;;;6.80;79.20;;;;;;5024781;28;20116;-73
2023/12/22 11:17:33;;;;;;;19.53;4.27;;;6.80;78.70;;;;;;5024204;28;20096;-76
2023/12/22 11:19:59;;;;;;;27.03;4.10;;;6.80;78.90;;;;;;5006202;28;20174;-76
2023/12/22 11:22:26;;;;;;;26.10;4.40;;;6.90;79.10;;;;;;5008469;28;20064;-75
2023/12/22 11:24:52;;;;;;;28.07;4.97;;;6.90;79.10;;;;;;5026232;28;20512;-76
2023/12/22 11:27:21;;;;;;;27.23;4.77;;;6.90;78.90;;;;;;5023571;28;20108;-76
2023/12/22 11:29:50;;;;;;;24.37;4.70;;;6.90;79.00;;;;;;5013938;28;20048;-75
2023/12/22 11:32:17;;;;;;;28.23;4.70;;;6.90;79.00;;;;;;5006972;28;20044;-75
2023/12/22 11:34:44;;;;;;;24.47;4.27;;;6.90;78.90;;;;;;5025767;28;20100;-76
2023/12/22 11:37:13;;;;;;;28.90;4.37;;;6.90;78.70;;;;;;5025332;28;20049;-76
2023/12/22 11:39:40;;;;;;;27.37;4.03;;;6.90;78.80;;;;;;5023948;28;20045;-76
2023/12/22 11:42:09;;;;;;;23.83;4.47;;;6.90;78.70;;;;;;5018707;28;20489;-76
2023/12/22 11:44:35;;;;;;;22.10;3.70;;;6.90;78.80;;;;;;5025827;28;20573;-76
2023/12/22 11:47:08;;;;;;;22.77;4.13;;;6.90;78.20;;;;;;5024545;28;20084;-76
2023/12/22 11:49:37;;;;;;;23.93;3.80;;;6.90;78.50;;;;;;5027930;28;20555;-76
2023/12/22 11:52:14;;;;;;;23.93;4.20;;;6.90;78.40;;;;;;5027497;28;20033;-76
2023/12/22 11:54:47;;;;;;;24.87;4.60;;;7.00;78.60;;;;;;5024336;28;20500;-76
2023/12/22 11:57:28;;;;;;;27.10;3.87;;;6.90;78.40;;;;;;5029314;28;20049;-76
2023/12/22 12:00:06;;;;;;;23.33;3.55;;;7.00;78.60;;;;;;5029550;28;20068;-76
2023/12/22 12:02:37;;;;;;;25.47;3.97;;;7.00;78.80;;;;;;5028714;28;20057;-75
2023/12/22 12:05:04;;;;;;;25.83;3.58;;;7.00;78.80;;;;;;5029556;28;20045;-75
2023/12/22 12:07:49;;;;;;;26.50;3.73;;;7.00;78.40;;;;;;5029275;28;20544;-77
2023/12/22 12:10:34;;;;;;;20.70;3.57;;;7.00;78.90;;;;;;5028377;28;20451;-76
2023/12/22 12:13:10;;;;;;;19.30;3.53;;;7.00;78.70;;;;;;5025830;28;20399;-76
2023/12/22 12:15:37;;;;;;;20.70;4.10;;;7.00;78.90;;;;;;5014705;28;20088;-75
2023/12/22 12:18:04;;;;;;;23.67;3.83;;;7.00;78.60;;;;;;5024235;28;20461;-75
2023/12/22 12:20:30;;;;;;;21.87;3.77;;;7.00;78.60;;;;;;5023547;28;20104;-76
2023/12/22 12:22:56;;;;;;;22.13;3.97;;;6.90;78.40;;;;;;5024285;28;20596;-76
2023/12/22 12:25:28;;;;;;;19.70;3.70;;;6.90;78.20;;;;;;5026240;28;20053;-76
2023/12/22 12:28:08;;;;;;;19.13;3.30;;;6.90;78.60;;;;;;5025182;28;20053;-76
2023/12/22 12:30:36;;;;;;;22.97;3.33;;;6.90;78.10;;;;;;5020094;28;20061;-76
2023/12/22 12:33:14;;;;;;;22.27;3.70;;;6.90;78.10;;;;;;5022563;28;20497;-76
2023/12/22 12:35:41;;;;;;;18.43;2.90;;;6.90;77.90;;;;;;5006149;28;20065;-76
2023/12/22 12:38:07;;;;;;;24.33;3.77;;;6.90;77.80;;;;;;5007592;28;20045;-76
2023/12/22 12:40:35;;;;;;;22.07;3.90;;;6.90;78.00;;;;;;5006394;28;20096;-77
2023/12/22 12:43:02;;;;;;;20.90;3.27;;;6.90;78.00;;;;;;5000540;28;20054;-76
2023/12/22 12:45:28;;;;;;;19.07;3.90;;;6.90;78.00;;;;;;5013048;28;20056;-76